Wetterdaten: aktuell Freitag, 22.09.2017 11:45
Datum Zeit Temp. A. Luft Gew. Boden Gew. Boden A. Feuchte A. Luftdruck Regen Wind Richtung Richtung Sonnenschein ET UV Solar Taupunkt Windchill Windben Empfang
22.09.2017 11:45 10,1 C 12,8 C 0,0 C 0,0 C 94 % 1023,0 hPa 0,0 l/m 1,7 km/h (1 Bft) SW 224 60 min 0,076 mm 2,1 UV-I 340 W/m 9,2 C 10,1 C 6,4 km/h (2 Bft) 100,00 %
22.09.2017 10:45 8,3 C 9,4 C 0,0 C 0,0 C 95 % 1023,4 hPa 0,0 l/m 0,5 km/h (0 Bft) W-SW 253 15 min 0,051 mm 1,1 UV-I 179 W/m 7,5 C 8,3 C 4,8 km/h (1 Bft) 97,37 %
22.09.2017 09:45 7,6 C 7,8 C 0,0 C 0,0 C 95 % 1023,1 hPa 0,0 l/m 0,0 km/h (0 Bft) SO 127 5 min 0,025 mm 0,5 UV-I 134 W/m 6,9 C 7,6 C 0,0 km/h (0 Bft) 100,00 %
22.09.2017 08:45 6,3 C 6,1 C 0,0 C 0,0 C 94 % 1022,9 hPa 0,0 l/m 0,0 km/h (0 Bft) O-SO 114 0 min 0,000 mm 0,0 UV-I 86 W/m 5,4 C 6,3 C 0,0 km/h (0 Bft) 97,46 %
22.09.2017 07:45 5,3 C 4,4 C 0,0 C 0,0 C 93 % 1022,7 hPa 0,0 l/m 0,0 km/h (0 Bft) O-NO 69 0 min 0,000 mm 0,0 UV-I 22 W/m 4,3 C 5,3 C 0,0 km/h (0 Bft) 96,58 %
22.09.2017 06:45 4,7 C 3,9 C 0,0 C 0,0 C 92 % 1022,3 hPa 0,0 l/m 0,0 km/h (0 Bft) O-NO 69 0 min 0,000 mm 0,0 UV-I 0 W/m 3,5 C 4,7 C 0,0 km/h (0 Bft) 100,00 %
22.09.2017 05:45 4,6 C 3,9 C 0,0 C 0,0 C 91 % 1022,3 hPa 0,0 l/m 0,0 km/h (0 Bft) O-NO 69 0 min 0,000 mm 0,0 UV-I 0 W/m 3,3 C 4,6 C 0,0 km/h (0 Bft) 97,66 %
22.09.2017 04:45 5,2 C 4,4 C 0,0 C 0,0 C 90 % 1022,5 hPa 0,0 l/m 0,0 km/h (0 Bft) O-NO 69 0 min 0,000 mm 0,0 UV-I 0 W/m 3,7 C 5,2 C 0,0 km/h (0 Bft) 95,93 %
22.09.2017 03:45 5,7 C 5,0 C 0,0 C 0,0 C 90 % 1022,6 hPa 0,0 l/m 0,0 km/h (0 Bft) O-NO 69 0 min 0,000 mm 0,0 UV-I 0 W/m 4,2 C 5,7 C 0,0 km/h (0 Bft) 98,10 %
22.09.2017 02:45 6,2 C 5,6 C 0,0 C 0,0 C 90 % 1022,7 hPa 0,0 l/m 0,0 km/h (0 Bft) O-NO 69 0 min 0,000 mm 0,0 UV-I 0 W/m 4,7 C 6,2 C 0,0 km/h (0 Bft) 97,46 %
22.09.2017 01:45 6,5 C 5,6 C 0,0 C 0,0 C 89 % 1022,8 hPa 0,0 l/m 0,0 km/h (0 Bft) O-NO 69 0 min 0,000 mm 0,0 UV-I 0 W/m 4,8 C 6,5 C 0,0 km/h (0 Bft) 97,44 %
22.09.2017 00:45 7,2 C 6,7 C 0,0 C 0,0 C 88 % 1022,8 hPa 0,0 l/m 0,0 km/h (0 Bft) O-NO 69 0 min 0,000 mm 0,0 UV-I 0 W/m 5,3 C 7,2 C 0,0 km/h (0 Bft) 97,44 %
21.09.2017 23:45 7,9 C 7,2 C 0,0 C 0,0 C 87 % 1022,6 hPa 0,0 l/m 0,0 km/h (0 Bft) O-NO 69 0 min 0,000 mm 0,0 UV-I 0 W/m 5,9 C 7,9 C 0,0 km/h (0 Bft) 97,44 %
21.09.2017 22:45 8,9 C 8,3 C 0,0 C 0,0 C 85 % 1022,5 hPa 0,0 l/m 0,0 km/h (0 Bft) O-NO 69 0 min 0,000 mm 0,0 UV-I 0 W/m 6,5 C 8,9 C 0,0 km/h (0 Bft) 97,46 %
21.09.2017 21:45 10,2 C 9,4 C 0,0 C 0,0 C 84 % 1022,4 hPa 0,0 l/m 0,0 km/h (0 Bft) O-NO 69 0 min 0,026 mm 0,0 UV-I 0 W/m 7,6 C 10,2 C 0,0 km/h (0 Bft) 96,67 %
21.09.2017 20:45 11,7 C 11,1 C 0,0 C 0,0 C 80 % 1022,2 hPa 0,0 l/m 0,0 km/h (0 Bft) O-NO 69 0 min 0,000 mm 0,0 UV-I 0 W/m 8,4 C 11,7 C 0,0 km/h (0 Bft) 100,00 %
21.09.2017 19:45 13,2 C 14,4 C 0,0 C 0,0 C 76 % 1021,8 hPa 0,0 l/m 0,0 km/h (0 Bft) O-NO 69 0 min 0,050 mm 0,0 UV-I 0 W/m 9,1 C 13,2 C 0,0 km/h (0 Bft) 98,29 %
21.09.2017 18:45 15,0 C 17,8 C 0,0 C 0,0 C 70 % 1021,8 hPa 0,0 l/m 1,2 km/h (1 Bft) O-NO 76 15 min 0,153 mm 0,0 UV-I 25 W/m 9,6 C 15,0 C 4,8 km/h (1 Bft) 100,00 %
21.09.2017 17:45 16,4 C 21,7 C 0,0 C 0,0 C 64 % 1021,9 hPa 0,0 l/m 1,0 km/h (0 Bft) O-NO 61 60 min 0,228 mm 0,5 UV-I 209 W/m 9,6 C 16,4 C 4,8 km/h (1 Bft) 97,32 %
21.09.2017 16:45 17,0 C 22,2 C 0,0 C 0,0 C 62 % 1022,3 hPa 0,0 l/m 2,7 km/h (1 Bft) O-NO 67 60 min 0,001 mm 1,2 UV-I 376 W/m 9,7 C 17,0 C 8,0 km/h (2 Bft) 100,00 %
21.09.2017 15:45 16,4 C 21,1 C 0,0 C 0,0 C 66 % 1022,5 hPa 0,0 l/m 2,0 km/h (1 Bft) O-SO 109 50 min 0,254 mm 1,9 UV-I 472 W/m 10,0 C 16,4 C 11,3 km/h (2 Bft) 100,00 %
21.09.2017 14:45 15,8 C 22,2 C 0,0 C 0,0 C 70 % 1022,9 hPa 0,0 l/m 0,6 km/h (0 Bft) O-SO 106 55 min 0,305 mm 1,9 UV-I 145 W/m 10,3 C 15,8 C 6,4 km/h (2 Bft) 98,21 %
21.09.2017 13:45 14,6 C 21,7 C 0,0 C 0,0 C 76 % 1023,5 hPa 0,0 l/m 2,5 km/h (1 Bft) O-NO 67 60 min 0,304 mm 2,5 UV-I 229 W/m 10,4 C 14,6 C 8,0 km/h (2 Bft) 100,00 %
21.09.2017 12:45 13,4 C 20,6 C 0,0 C 0,0 C 82 % 1024,1 hPa 0,2 l/m 1,6 km/h (1 Bft) O-NO 71 45 min 0,178 mm 3,6 UV-I 648 W/m 10,4 C 13,4 C 6,4 km/h (2 Bft) 100,00 %
21.09.2017 12:00 11,5 C 15,6 C 0,0 C 0,0 C 93 % 1024,4 hPa 0,0 l/m 0,0 km/h (0 Bft) W 268 0 min 0,000 mm 3,1 UV-I 523 W/m 10,4 C 11,5 C 1,6 km/h (1 Bft) 99,17 %
_ Min-Zeit 06:10 06:20 12:00 12:00 16:40 18:35 - 12:00 - - - - - - 06:10 06:10 19:10 22:55
Minimum _ 4,4 C 3,3 C 0,0 C 0,0 C 61 % 1021,7 hPa - 0,0 km/h (0 Bft) - - - - - - 3,1 C 4,4 C 0,0 km/h (0 Bft) 94,17 %
_ Max-Zeit 16:40 14:35 12:00 12:00 09:05 12:00 12:20 17:35 - - 12:00 14:00 13:00 14:00 13:30 16:40 15:15 12:10
Maximum _ 17,1 C 22,8 C 0,0 C 0,0 C 95 % 1024,4 hPa 0,2 l/m 5,7 km/h
O-NO (1 Bft)
- - 5 min 0,305 mm 3,7 UV-I 704 W/m 11,7 C 17,0 C 16,1 km/h
NO (3 Bft)
100,00 %
Durchschnitt _ 10,1 C 11,7 C 0,0 C 0,0 C 84 % 1022,8 hPa #0,2 l/m 0,6 km/h (0 Bft) O-NO - #1:20 h #0,152 mm 1,1 UV-I 125 W/m 7,4 C 10,1 C 2,6 km/h (1 Bft) 98,45 %